Mississippi — AEUI — position and weather

sailwx.info

Track history (hours):
 
Tides and Currents Weather Stations Pressure Air Temp Water Temp Dewpoint Dewpoint Depression Visibility Wind Speed Wind Dir Waves Ship Positions

Mississippi

Last reported at 2017-Nov-16 16:18 UTC. Time now 2017-Nov-20 17:41 UTC.
Position N 32°05' W 091°05'.

Length 100 m.

Type: Tow > 200 m length. MMSI: 38924000.

Date/timePositionNaut miles runAvg speedWind from/ knotsBaromVisibWave heightAir tempDewpointWater temp
2017-Nov-16 16:18N 32°05' W 091°05'2 7.0
2017-Nov-16 16:00N 32°07' W 091°07'3 3.9
2017-Nov-16 15:19N 32°08' W 091°03'2 7.8
2017-Nov-16 15:00N 32°08' W 091°01'5 9.1
2017-Nov-16 14:30N 32°12' W 090°59'5 9.1
2017-Nov-16 14:00N 32°17' W 090°57'4 8.9
2017-Nov-16 13:30N 32°20' W 090°54'2 4.5
2017-Nov-16 13:00N 32°21' W 090°57'0 0.0
2017-Nov-16 12:30N 32°21' W 090°57'2 3.1
2017-Nov-16 12:00N 32°20' W 090°55'0 0.4
2017-Nov-16 11:30N 32°20' W 090°55'0 0.0
2017-Nov-16 11:00N 32°20' W 090°55'0 0.0
2017-Nov-16 10:30N 32°20' W 090°55'0 0.0
2017-Nov-16 10:00N 32°20' W 090°55'0 0.0
2017-Nov-16 09:30N 32°20' W 090°55'0 0.0
2017-Nov-16 09:00N 32°20' W 090°55'0 0.0
2017-Nov-16 08:30N 32°20' W 090°55'0 0.0
2017-Nov-16 08:00N 32°20' W 090°55'0 0.0
2017-Nov-16 07:30N 32°20' W 090°55'0 0.0
2017-Nov-16 07:00N 32°20' W 090°55'0 0.0
2017-Nov-16 06:30N 32°20' W 090°55'0 0.0
2017-Nov-16 06:00N 32°20' W 090°55'0 0.0
2017-Nov-16 05:30N 32°20' W 090°55'0 0.1
2017-Nov-16 05:00N 32°20' W 090°55'1 2.7
2017-Nov-16 04:30N 32°21' W 090°53'2 4.9
2017-Nov-16 04:00N 32°23' W 090°53'1 2.3
2017-Nov-16 03:30N 32°23' W 090°54'0 0.0
2017-Nov-16 03:00N 32°23' W 090°54'0 0.0
2017-Nov-16 02:30N 32°23' W 090°54'0 0.0
2017-Nov-16 02:00N 32°23' W 090°54'1 2.8
2017-Nov-16 01:31N 32°23' W 090°53'3 5.8
2017-Nov-16 01:00N 32°20' W 090°54'2 3.8
2017-Nov-16 00:30N 32°21' W 090°56'1 2.2
2017-Nov-16 00:00N 32°20' W 090°55'0 0.0
2017-Nov-15 23:30N 32°20' W 090°55'0 0.2
2017-Nov-15 23:00N 32°20' W 090°55'0 0.2
2017-Nov-15 22:30N 32°20' W 090°55'0 0.0
2017-Nov-15 22:00N 32°20' W 090°55'0 0.0
2017-Nov-15 21:30N 32°20' W 090°55'0 0.0
2017-Nov-15 21:00N 32°20' W 090°55'0 0.0
2017-Nov-15 20:30N 32°20' W 090°55'1 2.4
2017-Nov-15 20:00N 32°21' W 090°54'3 5.1
2017-Nov-15 19:30N 32°23' W 090°53'1 2.6
2017-Nov-15 19:00N 32°23' W 090°54'0 0.0
2017-Nov-15 18:30N 32°23' W 090°54'0 0.0
2017-Nov-15 18:00N 32°23' W 090°54'0 0.0
2017-Nov-15 17:30N 32°23' W 090°54'0 0.0
2017-Nov-15 17:00N 32°23' W 090°54'0 0.0
2017-Nov-15 16:30N 32°23' W 090°54'0 0.0
2017-Nov-15 16:00N 32°23' W 090°54'0 0.0
2017-Nov-15 15:30N 32°23' W 090°54'0 0.0
2017-Nov-15 15:00N 32°23' W 090°54'0 0.0
2017-Nov-15 14:30N 32°23' W 090°54'0 0.0
2017-Nov-15 14:00N 32°23' W 090°54'0 0.0
2017-Nov-15 13:30N 32°23' W 090°54'0 0.0
2017-Nov-15 13:00N 32°23' W 090°54'0 0.0
2017-Nov-15 12:30N 32°23' W 090°54'0 0.0
2017-Nov-15 12:00N 32°23' W 090°54'0 0.0
2017-Nov-15 11:30N 32°23' W 090°54'0 0.0
2017-Nov-15 11:01N 32°23' W 090°54'0 0.0
2017-Nov-15 10:30N 32°23' W 090°54'0 0.0
2017-Nov-15 10:00N 32°23' W 090°54'0 0.0
2017-Nov-15 09:30N 32°23' W 090°54'0 0.0
2017-Nov-15 09:00N 32°23' W 090°54'0 0.0
2017-Nov-15 08:30N 32°23' W 090°54'2 3.2
2017-Nov-15 08:00N 32°23' W 090°52'3 5.3
2017-Nov-15 07:30N 32°20' W 090°54'2 4.0
2017-Nov-15 07:00N 32°21' W 090°56'2 4.3
2017-Nov-15 06:30N 32°19' W 090°54'1 2.6
2017-Nov-15 06:00N 32°18' W 090°55'0 0.0
2017-Nov-15 05:30N 32°18' W 090°55'0 0.0
2017-Nov-15 05:00N 32°18' W 090°55'0 0.0
2017-Nov-15 04:30N 32°18' W 090°55'0 0.0
2017-Nov-15 04:01N 32°18' W 090°55'0 0.0
2017-Nov-15 03:30N 32°18' W 090°55'0 0.0
2017-Nov-15 03:00N 32°18' W 090°55'0 0.0
2017-Nov-15 02:30N 32°18' W 090°55'0 0.0
2017-Nov-15 02:00N 32°18' W 090°55'0 0.0
2017-Nov-15 01:30N 32°18' W 090°55'0 0.0
2017-Nov-15 01:00N 32°18' W 090°55'0 0.0
2017-Nov-15 00:30N 32°18' W 090°55'0 0.0
2017-Nov-15 00:00N 32°18' W 090°55'0 0.0
2017-Nov-14 23:30N 32°18' W 090°55'0 0.0
2017-Nov-14 23:00N 32°18' W 090°55'0 0.0
2017-Nov-14 22:30N 32°18' W 090°55'0 0.0
2017-Nov-14 22:00N 32°18' W 090°55'0 0.0
2017-Nov-14 21:30N 32°18' W 090°55'0 0.0
2017-Nov-14 21:00N 32°18' W 090°55'0 0.0
2017-Nov-14 20:30N 32°18' W 090°55'0 0.0
2017-Nov-14 20:00N 32°18' W 090°55'0 0.0
2017-Nov-14 19:30N 32°18' W 090°55'0 0.0
2017-Nov-14 19:00N 32°18' W 090°55'0 0.0
2017-Nov-14 18:30N 32°18' W 090°55'0 0.0
2017-Nov-14 18:00N 32°18' W 090°55'0 0.0
2017-Nov-14 17:30N 32°18' W 090°55'0 0.0
2017-Nov-14 17:00N 32°18' W 090°55'0 0.0
2017-Nov-14 16:30N 32°18' W 090°55'0 0.0
2017-Nov-14 16:00N 32°18' W 090°55'0 0.0
2017-Nov-14 15:30N 32°18' W 090°55'0 0.0
2017-Nov-14 15:00N 32°18' W 090°55'0 0.0
2017-Nov-14 14:30N 32°18' W 090°55'0 0.0
2017-Nov-14 14:00N 32°18' W 090°55'0 0.0
2017-Nov-14 13:30N 32°18' W 090°55'0 0.0
2017-Nov-14 13:00N 32°18' W 090°55'0 0.0
2017-Nov-14 12:30N 32°18' W 090°55'0 0.0
2017-Nov-14 12:00N 32°18' W 090°55'0 0.0
2017-Nov-14 11:30N 32°18' W 090°55'0 0.0
2017-Nov-14 11:00N 32°18' W 090°55'0 0.0
2017-Nov-14 10:30N 32°18' W 090°55'0 0.0
2017-Nov-14 10:00N 32°18' W 090°55'0 0.0
2017-Nov-14 09:30N 32°18' W 090°55'0 0.0
2017-Nov-14 09:00N 32°18' W 090°55'0 0.0
2017-Nov-14 08:30N 32°18' W 090°55'0 0.0
2017-Nov-14 08:00N 32°18' W 090°55'0 0.0
2017-Nov-14 07:30N 32°18' W 090°55'0 0.0
2017-Nov-14 07:00N 32°18' W 090°55'0 0.0
2017-Nov-14 06:30N 32°18' W 090°55'0 0.0
2017-Nov-14 06:00N 32°18' W 090°55'0 0.0
2017-Nov-14 05:30N 32°18' W 090°55'0 0.0
2017-Nov-14 05:00N 32°18' W 090°55'0 0.0
2017-Nov-14 04:30N 32°18' W 090°55'0 0.0
2017-Nov-14 04:00N 32°18' W 090°55'0 0.0
2017-Nov-14 03:30N 32°18' W 090°55'0 0.0
2017-Nov-14 03:00N 32°18' W 090°55'0 0.0
2017-Nov-14 02:30N 32°18' W 090°55'0 0.0
2017-Nov-14 02:00N 32°18' W 090°55'0 0.0
2017-Nov-14 01:30N 32°18' W 090°55'0 0.0
2017-Nov-14 01:00N 32°18' W 090°55'0 0.0
2017-Nov-14 00:30N 32°18' W 090°55'0 0.0
2017-Nov-14 00:00N 32°18' W 090°55'0 0.0
2017-Nov-13 23:31N 32°18' W 090°55'0 0.0
2017-Nov-13 23:00N 32°18' W 090°55'0 0.0
2017-Nov-13 22:30N 32°18' W 090°55'0 0.0
2017-Nov-13 22:00N 32°18' W 090°55'0 0.0
2017-Nov-13 02:01N 32°18' W 090°55'0 0.0
2017-Nov-13 01:31N 32°18' W 090°55'0 0.0
2017-Nov-13 01:00N 32°18' W 090°55'0 0.0
2017-Nov-13 00:30N 32°18' W 090°55'0 0.0
2017-Nov-13 00:01N 32°18' W 090°55'0 0.0
2017-Nov-12 23:30N 32°18' W 090°55'0 0.0
2017-Nov-12 23:00N 32°18' W 090°55'0 0.0
2017-Nov-12 22:30N 32°18' W 090°55'0 0.0
2017-Nov-12 22:00N 32°18' W 090°55'0 0.0
2017-Nov-12 21:30N 32°18' W 090°55'0 0.0
2017-Nov-12 21:00N 32°18' W 090°55'0 0.0
2017-Nov-12 20:30N 32°18' W 090°55'0 0.0
2017-Nov-12 20:00N 32°18' W 090°55'0 0.0
2017-Nov-12 19:30N 32°18' W 090°55'0 0.0
2017-Nov-12 19:00N 32°18' W 090°55'0 0.0
2017-Nov-12 18:30N 32°18' W 090°55'0 0.0
2017-Nov-12 18:00N 32°18' W 090°55'0 0.0
2017-Nov-12 17:30N 32°18' W 090°55'0 0.0
2017-Nov-12 17:00N 32°18' W 090°55'0 0.0
2017-Nov-12 16:30N 32°18' W 090°55'0 0.0
2017-Nov-12 16:00N 32°18' W 090°55'0 0.0
2017-Nov-12 15:30N 32°18' W 090°55'0 0.0
2017-Nov-12 15:00N 32°18' W 090°55'0 0.0
2017-Nov-12 14:30N 32°18' W 090°55'0 0.0
2017-Nov-12 14:00N 32°18' W 090°55'0 0.0
2017-Nov-12 13:30N 32°18' W 090°55'0 0.0
2017-Nov-12 13:00N 32°18' W 090°55'0 0.0
2017-Nov-12 12:30N 32°18' W 090°55'0 0.2
2017-Nov-12 12:00N 32°18' W 090°56'1 2.1
2017-Nov-12 11:30N 32°19' W 090°54'3 5.1
2017-Nov-12 11:00N 32°21' W 090°56'4 7.1
2017-Nov-12 10:30N 32°22' W 091°00'4 7.9
2017-Nov-12 10:00N 32°25' W 091°01'5 9.6
2017-Nov-12 09:30N 32°28' W 091°06'5 9.7
2017-Nov-12 08:59N 32°33' W 091°06'511.1
2017-Nov-12 08:30N 32°37' W 091°09'  
2017-Nov-09 02:23N 32°38' W 091°09'2 5.8
2017-Nov-09 02:00N 32°36' W 091°09'4 7.0
2017-Nov-09 01:30N 32°33' W 091°06'3 5.9
2017-Nov-09 01:00N 32°30' W 091°07'3 6.0
2017-Nov-09 00:30N 32°28' W 091°06'4 7.2
2017-Nov-09 00:00N 32°26' W 091°02'3 6.2
2017-Nov-08 23:30N 32°24' W 090°60'2 3.8
2017-Nov-08 23:00N 32°22' W 091°00'3 5.9
2017-Nov-08 22:30N 32°21' W 090°57'2 3.6
2017-Nov-08 22:00N 32°21' W 090°55'1 2.3
2017-Nov-08 21:30N 32°21' W 090°53'2 4.6
2017-Nov-08 21:00N 32°23' W 090°53'1 2.5
2017-Nov-08 20:30N 32°23' W 090°54'0 0.0
2017-Nov-08 20:00N 32°23' W 090°54'0 0.0
2017-Nov-08 19:30N 32°23' W 090°54'0 0.0
2017-Nov-08 19:00N 32°23' W 090°54'0 0.0
2017-Nov-08 18:30N 32°23' W 090°54'0 0.0
2017-Nov-08 18:00N 32°23' W 090°54'0 0.0
2017-Nov-08 17:30N 32°23' W 090°54'0 0.0
2017-Nov-08 17:00N 32°23' W 090°54'0 0.0
2017-Nov-08 16:30N 32°23' W 090°54'0 0.0
2017-Nov-08 16:00N 32°23' W 090°54'0 0.0
2017-Nov-08 15:30N 32°23' W 090°54'0 0.0
2017-Nov-08 15:00N 32°23' W 090°54'0 0.0
2017-Nov-08 14:30N 32°23' W 090°54'0 0.0
2017-Nov-08 14:00N 32°23' W 090°54'1 1.4
2017-Nov-08 13:30N 32°23' W 090°53'2 4.8
2017-Nov-08 13:00N 32°21' W 090°53'1 2.4
2017-Nov-08 12:30N 32°21' W 090°55'0 0.0
2017-Nov-08 12:00N 32°21' W 090°55'0 0.0
2017-Nov-08 11:30N 32°21' W 090°55'0 0.4
2017-Nov-08 11:00N 32°21' W 090°55'1 2.6
2017-Nov-08 10:30N 32°19' W 090°54'2 4.0
2017-Nov-08 10:00N 32°18' W 090°56'2 3.0
2017-Nov-08 09:30N 32°17' W 090°57'2 4.5
2017-Nov-08 09:00N 32°15' W 090°59'3 6.6
2017-Nov-08 08:30N 32°12' W 090°59'3 6.8
2017-Nov-08 08:00N 32°09' W 091°00'3 4.9
2017-Nov-08 07:29N 32°07' W 091°03'3 5.1
2017-Nov-08 06:58N 32°08' W 091°06'7 3.6
2017-Nov-08 05:08N 32°01' W 091°04'0 1.7
2017-Nov-08 05:00N 32°01' W 091°04'  
Track history (hours):
 
Tides and Currents Weather Stations Pressure Air Temp Water Temp Dewpoint Dewpoint Depression Visibility Wind Speed Wind Dir Waves Ship Positions

Mississippi

Last reported at 2017-Nov-16 16:18 UTC. Time now 2017-Nov-20 17:41 UTC.
Position N 32°05' W 091°05'.

Length 100 m.

Type: Tow > 200 m length. MMSI: 38924000.

Date/timePositionNaut miles runAvg speedWind from/ knotsBaromVisibWave heightAir tempDewpointWater temp
2017-Nov-16 16:18N 32°05' W 091°05'2 7.0
2017-Nov-16 16:00N 32°07' W 091°07'3 3.9
2017-Nov-16 15:19N 32°08' W 091°03'2 7.8
2017-Nov-16 15:00N 32°08' W 091°01'5 9.1
2017-Nov-16 14:30N 32°12' W 090°59'5 9.1
2017-Nov-16 14:00N 32°17' W 090°57'4 8.9
2017-Nov-16 13:30N 32°20' W 090°54'2 4.5
2017-Nov-16 13:00N 32°21' W 090°57'0 0.0
2017-Nov-16 12:30N 32°21' W 090°57'2 3.1
2017-Nov-16 12:00N 32°20' W 090°55'0 0.4
2017-Nov-16 11:30N 32°20' W 090°55'0 0.0
2017-Nov-16 11:00N 32°20' W 090°55'0 0.0
2017-Nov-16 10:30N 32°20' W 090°55'0 0.0
2017-Nov-16 10:00N 32°20' W 090°55'0 0.0
2017-Nov-16 09:30N 32°20' W 090°55'0 0.0
2017-Nov-16 09:00N 32°20' W 090°55'0 0.0
2017-Nov-16 08:30N 32°20' W 090°55'0 0.0
2017-Nov-16 08:00N 32°20' W 090°55'0 0.0
2017-Nov-16 07:30N 32°20' W 090°55'0 0.0
2017-Nov-16 07:00N 32°20' W 090°55'0 0.0
2017-Nov-16 06:30N 32°20' W 090°55'0 0.0
2017-Nov-16 06:00N 32°20' W 090°55'0 0.0
2017-Nov-16 05:30N 32°20' W 090°55'0 0.1
2017-Nov-16 05:00N 32°20' W 090°55'1 2.7
2017-Nov-16 04:30N 32°21' W 090°53'2 4.9
2017-Nov-16 04:00N 32°23' W 090°53'1 2.3
2017-Nov-16 03:30N 32°23' W 090°54'0 0.0
2017-Nov-16 03:00N 32°23' W 090°54'0 0.0
2017-Nov-16 02:30N 32°23' W 090°54'0 0.0
2017-Nov-16 02:00N 32°23' W 090°54'1 2.8
2017-Nov-16 01:31N 32°23' W 090°53'3 5.8
2017-Nov-16 01:00N 32°20' W 090°54'2 3.8
2017-Nov-16 00:30N 32°21' W 090°56'1 2.2
2017-Nov-16 00:00N 32°20' W 090°55'0 0.0
2017-Nov-15 23:30N 32°20' W 090°55'0 0.2
2017-Nov-15 23:00N 32°20' W 090°55'0 0.2
2017-Nov-15 22:30N 32°20' W 090°55'0 0.0
2017-Nov-15 22:00N 32°20' W 090°55'0 0.0
2017-Nov-15 21:30N 32°20' W 090°55'0 0.0
2017-Nov-15 21:00N 32°20' W 090°55'0 0.0
2017-Nov-15 20:30N 32°20' W 090°55'1 2.4
2017-Nov-15 20:00N 32°21' W 090°54'3 5.1
2017-Nov-15 19:30N 32°23' W 090°53'1 2.6
2017-Nov-15 19:00N 32°23' W 090°54'0 0.0
2017-Nov-15 18:30N 32°23' W 090°54'0 0.0
2017-Nov-15 18:00N 32°23' W 090°54'0 0.0
2017-Nov-15 17:30N 32°23' W 090°54'0 0.0
2017-Nov-15 17:00N 32°23' W 090°54'0 0.0
2017-Nov-15 16:30N 32°23' W 090°54'0 0.0
2017-Nov-15 16:00N 32°23' W 090°54'0 0.0
2017-Nov-15 15:30N 32°23' W 090°54'0 0.0
2017-Nov-15 15:00N 32°23' W 090°54'0 0.0
2017-Nov-15 14:30N 32°23' W 090°54'0 0.0
2017-Nov-15 14:00N 32°23' W 090°54'0 0.0
2017-Nov-15 13:30N 32°23' W 090°54'0 0.0
2017-Nov-15 13:00N 32°23' W 090°54'0 0.0
2017-Nov-15 12:30N 32°23' W 090°54'0 0.0
2017-Nov-15 12:00N 32°23' W 090°54'0 0.0
2017-Nov-15 11:30N 32°23' W 090°54'0 0.0
2017-Nov-15 11:01N 32°23' W 090°54'0 0.0
2017-Nov-15 10:30N 32°23' W 090°54'0 0.0
2017-Nov-15 10:00N 32°23' W 090°54'0 0.0
2017-Nov-15 09:30N 32°23' W 090°54'0 0.0
2017-Nov-15 09:00N 32°23' W 090°54'0 0.0
2017-Nov-15 08:30N 32°23' W 090°54'2 3.2
2017-Nov-15 08:00N 32°23' W 090°52'3 5.3
2017-Nov-15 07:30N 32°20' W 090°54'2 4.0
2017-Nov-15 07:00N 32°21' W 090°56'2 4.3
2017-Nov-15 06:30N 32°19' W 090°54'1 2.6
2017-Nov-15 06:00N 32°18' W 090°55'0 0.0
2017-Nov-15 05:30N 32°18' W 090°55'0 0.0
2017-Nov-15 05:00N 32°18' W 090°55'0 0.0
2017-Nov-15 04:30N 32°18' W 090°55'0 0.0
2017-Nov-15 04:01N 32°18' W 090°55'0 0.0
2017-Nov-15 03:30N 32°18' W 090°55'0 0.0
2017-Nov-15 03:00N 32°18' W 090°55'0 0.0
2017-Nov-15 02:30N 32°18' W 090°55'0 0.0
2017-Nov-15 02:00N 32°18' W 090°55'0 0.0
2017-Nov-15 01:30N 32°18' W 090°55'0 0.0
2017-Nov-15 01:00N 32°18' W 090°55'0 0.0
2017-Nov-15 00:30N 32°18' W 090°55'0 0.0
2017-Nov-15 00:00N 32°18' W 090°55'0 0.0
2017-Nov-14 23:30N 32°18' W 090°55'0 0.0
2017-Nov-14 23:00N 32°18' W 090°55'0 0.0
2017-Nov-14 22:30N 32°18' W 090°55'0 0.0
2017-Nov-14 22:00N 32°18' W 090°55'0 0.0
2017-Nov-14 21:30N 32°18' W 090°55'0 0.0
2017-Nov-14 21:00N 32°18' W 090°55'0 0.0
2017-Nov-14 20:30N 32°18' W 090°55'0 0.0
2017-Nov-14 20:00N 32°18' W 090°55'0 0.0
2017-Nov-14 19:30N 32°18' W 090°55'0 0.0
2017-Nov-14 19:00N 32°18' W 090°55'0 0.0
2017-Nov-14 18:30N 32°18' W 090°55'0 0.0
2017-Nov-14 18:00N 32°18' W 090°55'0 0.0
2017-Nov-14 17:30N 32°18' W 090°55'0 0.0
2017-Nov-14 17:00N 32°18' W 090°55'0 0.0
2017-Nov-14 16:30N 32°18' W 090°55'0 0.0
2017-Nov-14 16:00N 32°18' W 090°55'0 0.0
2017-Nov-14 15:30N 32°18' W 090°55'0 0.0
2017-Nov-14 15:00N 32°18' W 090°55'0 0.0
2017-Nov-14 14:30N 32°18' W 090°55'0 0.0
2017-Nov-14 14:00N 32°18' W 090°55'0 0.0
2017-Nov-14 13:30N 32°18' W 090°55'0 0.0
2017-Nov-14 13:00N 32°18' W 090°55'0 0.0
2017-Nov-14 12:30N 32°18' W 090°55'0 0.0
2017-Nov-14 12:00N 32°18' W 090°55'0 0.0
2017-Nov-14 11:30N 32°18' W 090°55'0 0.0
2017-Nov-14 11:00N 32°18' W 090°55'0 0.0
2017-Nov-14 10:30N 32°18' W 090°55'0 0.0
2017-Nov-14 10:00N 32°18' W 090°55'0 0.0
2017-Nov-14 09:30N 32°18' W 090°55'0 0.0
2017-Nov-14 09:00N 32°18' W 090°55'0 0.0
2017-Nov-14 08:30N 32°18' W 090°55'0 0.0
2017-Nov-14 08:00N 32°18' W 090°55'0 0.0
2017-Nov-14 07:30N 32°18' W 090°55'0 0.0
2017-Nov-14 07:00N 32°18' W 090°55'0 0.0
2017-Nov-14 06:30N 32°18' W 090°55'0 0.0
2017-Nov-14 06:00N 32°18' W 090°55'0 0.0
2017-Nov-14 05:30N 32°18' W 090°55'0 0.0
2017-Nov-14 05:00N 32°18' W 090°55'0 0.0
2017-Nov-14 04:30N 32°18' W 090°55'0 0.0
2017-Nov-14 04:00N 32°18' W 090°55'0 0.0
2017-Nov-14 03:30N 32°18' W 090°55'0 0.0
2017-Nov-14 03:00N 32°18' W 090°55'0 0.0
2017-Nov-14 02:30N 32°18' W 090°55'0 0.0
2017-Nov-14 02:00N 32°18' W 090°55'0 0.0
2017-Nov-14 01:30N 32°18' W 090°55'0 0.0
2017-Nov-14 01:00N 32°18' W 090°55'0 0.0
2017-Nov-14 00:30N 32°18' W 090°55'0 0.0
2017-Nov-14 00:00N 32°18' W 090°55'0 0.0
2017-Nov-13 23:31N 32°18' W 090°55'0 0.0
2017-Nov-13 23:00N 32°18' W 090°55'0 0.0
2017-Nov-13 22:30N 32°18' W 090°55'0 0.0
2017-Nov-13 22:00N 32°18' W 090°55'0 0.0
2017-Nov-13 02:01N 32°18' W 090°55'0 0.0
2017-Nov-13 01:31N 32°18' W 090°55'0 0.0
2017-Nov-13 01:00N 32°18' W 090°55'0 0.0
2017-Nov-13 00:30N 32°18' W 090°55'0 0.0
2017-Nov-13 00:01N 32°18' W 090°55'0 0.0
2017-Nov-12 23:30N 32°18' W 090°55'0 0.0
2017-Nov-12 23:00N 32°18' W 090°55'0 0.0
2017-Nov-12 22:30N 32°18' W 090°55'0 0.0
2017-Nov-12 22:00N 32°18' W 090°55'0 0.0
2017-Nov-12 21:30N 32°18' W 090°55'0 0.0
2017-Nov-12 21:00N 32°18' W 090°55'0 0.0
2017-Nov-12 20:30N 32°18' W 090°55'0 0.0
2017-Nov-12 20:00N 32°18' W 090°55'0 0.0
2017-Nov-12 19:30N 32°18' W 090°55'0 0.0
2017-Nov-12 19:00N 32°18' W 090°55'0 0.0
2017-Nov-12 18:30N 32°18' W 090°55'0 0.0
2017-Nov-12 18:00N 32°18' W 090°55'0 0.0
2017-Nov-12 17:30N 32°18' W 090°55'0 0.0
2017-Nov-12 17:00N 32°18' W 090°55'0 0.0
2017-Nov-12 16:30N 32°18' W 090°55'0 0.0
2017-Nov-12 16:00N 32°18' W 090°55'0 0.0
2017-Nov-12 15:30N 32°18' W 090°55'0 0.0
2017-Nov-12 15:00N 32°18' W 090°55'0 0.0
2017-Nov-12 14:30N 32°18' W 090°55'0 0.0
2017-Nov-12 14:00N 32°18' W 090°55'0 0.0
2017-Nov-12 13:30N 32°18' W 090°55'0 0.0
2017-Nov-12 13:00N 32°18' W 090°55'0 0.0
2017-Nov-12 12:30N 32°18' W 090°55'0 0.2
2017-Nov-12 12:00N 32°18' W 090°56'1 2.1
2017-Nov-12 11:30N 32°19' W 090°54'3 5.1
2017-Nov-12 11:00N 32°21' W 090°56'4 7.1
2017-Nov-12 10:30N 32°22' W 091°00'4 7.9
2017-Nov-12 10:00N 32°25' W 091°01'5 9.6
2017-Nov-12 09:30N 32°28' W 091°06'5 9.7
2017-Nov-12 08:59N 32°33' W 091°06'511.1
2017-Nov-12 08:30N 32°37' W 091°09'  
2017-Nov-09 02:23N 32°38' W 091°09'2 5.8
2017-Nov-09 02:00N 32°36' W 091°09'4 7.0
2017-Nov-09 01:30N 32°33' W 091°06'3 5.9
2017-Nov-09 01:00N 32°30' W 091°07'3 6.0
2017-Nov-09 00:30N 32°28' W 091°06'4 7.2
2017-Nov-09 00:00N 32°26' W 091°02'3 6.2
2017-Nov-08 23:30N 32°24' W 090°60'2 3.8
2017-Nov-08 23:00N 32°22' W 091°00'3 5.9
2017-Nov-08 22:30N 32°21' W 090°57'2 3.6
2017-Nov-08 22:00N 32°21' W 090°55'1 2.3
2017-Nov-08 21:30N 32°21' W 090°53'2 4.6
2017-Nov-08 21:00N 32°23' W 090°53'1 2.5
2017-Nov-08 20:30N 32°23' W 090°54'0 0.0
2017-Nov-08 20:00N 32°23' W 090°54'0 0.0
2017-Nov-08 19:30N 32°23' W 090°54'0 0.0
2017-Nov-08 19:00N 32°23' W 090°54'0 0.0
2017-Nov-08 18:30N 32°23' W 090°54'0 0.0
2017-Nov-08 18:00N 32°23' W 090°54'0 0.0
2017-Nov-08 17:30N 32°23' W 090°54'0 0.0
2017-Nov-08 17:00N 32°23' W 090°54'0 0.0
2017-Nov-08 16:30N 32°23' W 090°54'0 0.0
2017-Nov-08 16:00N 32°23' W 090°54'0 0.0
2017-Nov-08 15:30N 32°23' W 090°54'0 0.0
2017-Nov-08 15:00N 32°23' W 090°54'0 0.0
2017-Nov-08 14:30N 32°23' W 090°54'0 0.0
2017-Nov-08 14:00N 32°23' W 090°54'1 1.4
2017-Nov-08 13:30N 32°23' W 090°53'2 4.8
2017-Nov-08 13:00N 32°21' W 090°53'1 2.4
2017-Nov-08 12:30N 32°21' W 090°55'0 0.0
2017-Nov-08 12:00N 32°21' W 090°55'0 0.0
2017-Nov-08 11:30N 32°21' W 090°55'0 0.4
2017-Nov-08 11:00N 32°21' W 090°55'1 2.6
2017-Nov-08 10:30N 32°19' W 090°54'2 4.0
2017-Nov-08 10:00N 32°18' W 090°56'2 3.0
2017-Nov-08 09:30N 32°17' W 090°57'2 4.5
2017-Nov-08 09:00N 32°15' W 090°59'3 6.6
2017-Nov-08 08:30N 32°12' W 090°59'3 6.8
2017-Nov-08 08:00N 32°09' W 091°00'3 4.9
2017-Nov-08 07:29N 32°07' W 091°03'3 5.1
2017-Nov-08 06:58N 32°08' W 091°06'7 3.6
2017-Nov-08 05:08N 32°01' W 091°04'0 1.7
2017-Nov-08 05:00N 32°01' W 091°04'  

Dump ship's entire track history